sensor_id;sensor_type;location;lat;lon;timestamp;P1;durP1;ratioP1;P2;durP2;ratioP2
49942;SDS011;36011;53.362;58.948;2023-04-23T00:00:33;35.10;;;7.50;;
49942;SDS011;36011;53.362;58.948;2023-04-23T00:03:36;25.67;;;6.32;;
49942;SDS011;36011;53.362;58.948;2023-04-23T00:06:42;27.15;;;6.63;;
49942;SDS011;36011;53.362;58.948;2023-04-23T00:09:46;24.25;;;6.72;;
49942;SDS011;36011;53.362;58.948;2023-04-23T00:12:55;30.13;;;7.43;;
49942;SDS011;36011;53.362;58.948;2023-04-23T00:15:56;26.13;;;6.70;;
49942;SDS011;36011;53.362;58.948;2023-04-23T00:18:59;25.55;;;7.40;;
49942;SDS011;36011;53.362;58.948;2023-04-23T00:22:05;23.42;;;6.78;;
49942;SDS011;36011;53.362;58.948;2023-04-23T00:25:06;29.65;;;6.82;;
49942;SDS011;36011;53.362;58.948;2023-04-23T00:28:11;31.67;;;7.00;;
49942;SDS011;36011;53.362;58.948;2023-04-23T00:31:17;24.85;;;7.40;;
49942;SDS011;36011;53.362;58.948;2023-04-23T00:34:25;28.40;;;6.57;;
49942;SDS011;36011;53.362;58.948;2023-04-23T00:37:26;20.52;;;6.05;;
49942;SDS011;36011;53.362;58.948;2023-04-23T00:40:31;20.55;;;5.85;;
49942;SDS011;36011;53.362;58.948;2023-04-23T00:43:32;27.52;;;6.22;;
49942;SDS011;36011;53.362;58.948;2023-04-23T00:46:37;27.35;;;7.32;;
49942;SDS011;36011;53.362;58.948;2023-04-23T00:49:39;24.30;;;6.20;;
49942;SDS011;36011;53.362;58.948;2023-04-23T00:52:47;25.98;;;5.82;;
49942;SDS011;36011;53.362;58.948;2023-04-23T00:55:53;21.38;;;6.00;;
49942;SDS011;36011;53.362;58.948;2023-04-23T00:58:55;20.98;;;5.63;;
49942;SDS011;36011;53.362;58.948;2023-04-23T01:01:59;22.52;;;5.80;;
49942;SDS011;36011;53.362;58.948;2023-04-23T01:05:04;17.33;;;5.30;;
49942;SDS011;36011;53.362;58.948;2023-04-23T01:08:07;19.00;;;5.65;;
49942;SDS011;36011;53.362;58.948;2023-04-23T01:11:17;15.13;;;4.90;;
49942;SDS011;36011;53.362;58.948;2023-04-23T01:14:22;11.93;;;5.03;;
49942;SDS011;36011;53.362;58.948;2023-04-23T01:17:25;16.75;;;4.70;;
49942;SDS011;36011;53.362;58.948;2023-04-23T01:20:35;14.13;;;4.97;;
49942;SDS011;36011;53.362;58.948;2023-04-23T01:23:39;14.98;;;4.97;;
49942;SDS011;36011;53.362;58.948;2023-04-23T01:26:41;11.57;;;4.38;;
49942;SDS011;36011;53.362;58.948;2023-04-23T01:29:44;14.35;;;3.88;;
49942;SDS011;36011;53.362;58.948;2023-04-23T01:32:47;13.23;;;4.18;;
49942;SDS011;36011;53.362;58.948;2023-04-23T01:38:57;12.80;;;4.68;;
49942;SDS011;36011;53.362;58.948;2023-04-23T01:42:00;14.35;;;4.15;;
49942;SDS011;36011;53.362;58.948;2023-04-23T01:45:09;11.68;;;3.92;;
49942;SDS011;36011;53.362;58.948;2023-04-23T01:48:16;13.82;;;4.55;;
49942;SDS011;36011;53.362;58.948;2023-04-23T01:51:17;12.93;;;5.07;;
49942;SDS011;36011;53.362;58.948;2023-04-23T01:54:23;11.85;;;4.47;;
49942;SDS011;36011;53.362;58.948;2023-04-23T01:57:27;13.82;;;4.25;;
49942;SDS011;36011;53.362;58.948;2023-04-23T02:00:34;14.73;;;4.03;;
49942;SDS011;36011;53.362;58.948;2023-04-23T02:03:41;9.27;;;4.60;;
49942;SDS011;36011;53.362;58.948;2023-04-23T02:06:49;8.93;;;3.53;;
49942;SDS011;36011;53.362;58.948;2023-04-23T02:09:51;13.57;;;4.55;;
49942;SDS011;36011;53.362;58.948;2023-04-23T02:12:57;17.17;;;5.95;;
49942;SDS011;36011;53.362;58.948;2023-04-23T02:16:02;13.18;;;4.05;;
49942;SDS011;36011;53.362;58.948;2023-04-23T02:19:04;9.52;;;4.03;;
49942;SDS011;36011;53.362;58.948;2023-04-23T02:22:10;9.75;;;3.40;;
49942;SDS011;36011;53.362;58.948;2023-04-23T02:25:17;13.75;;;3.97;;
49942;SDS011;36011;53.362;58.948;2023-04-23T02:28:18;11.48;;;3.90;;
49942;SDS011;36011;53.362;58.948;2023-04-23T02:31:20;6.10;;;3.22;;
49942;SDS011;36011;53.362;58.948;2023-04-23T02:34:27;9.32;;;4.03;;
49942;SDS011;36011;53.362;58.948;2023-04-23T02:37:34;15.95;;;3.70;;
49942;SDS011;36011;53.362;58.948;2023-04-23T02:40:39;8.43;;;3.70;;
49942;SDS011;36011;53.362;58.948;2023-04-23T02:43:43;9.65;;;3.63;;
49942;SDS011;36011;53.362;58.948;2023-04-23T02:46:47;10.02;;;3.35;;
49942;SDS011;36011;53.362;58.948;2023-04-23T02:49:51;7.75;;;3.47;;
49942;SDS011;36011;53.362;58.948;2023-04-23T02:56:02;6.88;;;3.00;;
49942;SDS011;36011;53.362;58.948;2023-04-23T02:59:06;7.75;;;3.15;;
49942;SDS011;36011;53.362;58.948;2023-04-23T03:02:10;10.82;;;2.67;;
49942;SDS011;36011;53.362;58.948;2023-04-23T03:05:14;9.00;;;3.33;;
49942;SDS011;36011;53.362;58.948;2023-04-23T03:08:18;14.02;;;3.55;;
49942;SDS011;36011;53.362;58.948;2023-04-23T03:11:24;10.73;;;3.53;;
49942;SDS011;36011;53.362;58.948;2023-04-23T03:14:27;4.28;;;2.78;;
49942;SDS011;36011;53.362;58.948;2023-04-23T03:17:31;9.82;;;2.88;;
49942;SDS011;36011;53.362;58.948;2023-04-23T03:20:35;9.93;;;3.00;;
49942;SDS011;36011;53.362;58.948;2023-04-23T03:23:40;8.35;;;2.55;;
49942;SDS011;36011;53.362;58.948;2023-04-23T03:26:42;7.53;;;2.60;;
49942;SDS011;36011;53.362;58.948;2023-04-23T03:29:46;3.85;;;2.47;;
49942;SDS011;36011;53.362;58.948;2023-04-23T03:32:54;8.40;;;2.42;;
49942;SDS011;36011;53.362;58.948;2023-04-23T03:36:01;6.32;;;2.47;;
49942;SDS011;36011;53.362;58.948;2023-04-23T03:39:07;5.68;;;2.10;;
49942;SDS011;36011;53.362;58.948;2023-04-23T03:42:12;6.50;;;2.20;;
49942;SDS011;36011;53.362;58.948;2023-04-23T03:45:21;5.10;;;2.20;;
49942;SDS011;36011;53.362;58.948;2023-04-23T03:48:24;4.28;;;2.25;;
49942;SDS011;36011;53.362;58.948;2023-04-23T03:51:28;4.32;;;2.22;;
49942;SDS011;36011;53.362;58.948;2023-04-23T03:54:35;3.15;;;2.10;;
49942;SDS011;36011;53.362;58.948;2023-04-23T03:57:41;5.85;;;2.35;;
49942;SDS011;36011;53.362;58.948;2023-04-23T04:00:43;4.30;;;2.38;;
49942;SDS011;36011;53.362;58.948;2023-04-23T04:03:49;5.75;;;2.13;;
49942;SDS011;36011;53.362;58.948;2023-04-23T04:06:54;5.68;;;2.03;;
49942;SDS011;36011;53.362;58.948;2023-04-23T04:10:04;4.88;;;2.10;;
49942;SDS011;36011;53.362;58.948;2023-04-23T04:13:07;4.05;;;1.95;;
49942;SDS011;36011;53.362;58.948;2023-04-23T04:16:11;9.05;;;2.05;;
49942;SDS011;36011;53.362;58.948;2023-04-23T04:19:20;5.32;;;2.10;;
49942;SDS011;36011;53.362;58.948;2023-04-23T04:22:24;6.93;;;2.42;;
49942;SDS011;36011;53.362;58.948;2023-04-23T04:25:31;6.88;;;2.45;;
49942;SDS011;36011;53.362;58.948;2023-04-23T04:28:33;7.00;;;2.75;;
49942;SDS011;36011;53.362;58.948;2023-04-23T04:31:40;5.05;;;2.78;;
49942;SDS011;36011;53.362;58.948;2023-04-23T04:34:42;5.72;;;1.90;;
49942;SDS011;36011;53.362;58.948;2023-04-23T04:37:46;4.05;;;1.88;;
49942;SDS011;36011;53.362;58.948;2023-04-23T04:40:53;5.07;;;1.70;;
49942;SDS011;36011;53.362;58.948;2023-04-23T04:44:02;3.42;;;1.92;;
49942;SDS011;36011;53.362;58.948;2023-04-23T04:47:10;7.65;;;2.30;;
49942;SDS011;36011;53.362;58.948;2023-04-23T04:50:16;7.22;;;1.90;;
49942;SDS011;36011;53.362;58.948;2023-04-23T04:53:23;3.65;;;1.67;;
49942;SDS011;36011;53.362;58.948;2023-04-23T04:56:29;5.38;;;2.10;;
49942;SDS011;36011;53.362;58.948;2023-04-23T04:59:33;4.38;;;1.75;;
49942;SDS011;36011;53.362;58.948;2023-04-23T05:02:37;4.10;;;1.60;;
49942;SDS011;36011;53.362;58.948;2023-04-23T05:05:43;3.38;;;1.60;;
49942;SDS011;36011;53.362;58.948;2023-04-23T05:08:50;3.50;;;1.98;;
49942;SDS011;36011;53.362;58.948;2023-04-23T05:11:54;4.00;;;1.60;;
49942;SDS011;36011;53.362;58.948;2023-04-23T05:14:59;4.15;;;1.48;;
49942;SDS011;36011;53.362;58.948;2023-04-23T05:18:03;2.40;;;1.95;;
49942;SDS011;36011;53.362;58.948;2023-04-23T05:21:10;2.97;;;1.67;;
49942;SDS011;36011;53.362;58.948;2023-04-23T05:24:14;6.90;;;1.55;;
49942;SDS011;36011;53.362;58.948;2023-04-23T05:27:20;5.10;;;1.58;;
49942;SDS011;36011;53.362;58.948;2023-04-23T05:30:27;6.47;;;2.00;;
49942;SDS011;36011;53.362;58.948;2023-04-23T05:33:31;4.40;;;1.90;;
49942;SDS011;36011;53.362;58.948;2023-04-23T05:36:35;2.72;;;1.67;;
49942;SDS011;36011;53.362;58.948;2023-04-23T05:39:44;3.72;;;2.00;;
49942;SDS011;36011;53.362;58.948;2023-04-23T05:42:46;4.10;;;1.98;;
49942;SDS011;36011;53.362;58.948;2023-04-23T05:45:50;7.68;;;2.70;;
49942;SDS011;36011;53.362;58.948;2023-04-23T05:48:57;2.80;;;1.75;;
49942;SDS011;36011;53.362;58.948;2023-04-23T05:52:00;4.72;;;2.20;;
49942;SDS011;36011;53.362;58.948;2023-04-23T05:55:05;4.80;;;1.58;;
49942;SDS011;36011;53.362;58.948;2023-04-23T05:58:12;2.95;;;1.67;;
49942;SDS011;36011;53.362;58.948;2023-04-23T06:01:14;7.20;;;1.83;;
49942;SDS011;36011;53.362;58.948;2023-04-23T06:04:19;11.77;;;6.00;;
49942;SDS011;36011;53.362;58.948;2023-04-23T06:07:28;2.25;;;1.75;;
49942;SDS011;36011;53.362;58.948;2023-04-23T06:10:31;6.50;;;2.28;;
49942;SDS011;36011;53.362;58.948;2023-04-23T06:13:36;5.20;;;2.40;;
49942;SDS011;36011;53.362;58.948;2023-04-23T06:16:45;5.82;;;1.80;;
49942;SDS011;36011;53.362;58.948;2023-04-23T06:19:48;5.88;;;3.00;;
49942;SDS011;36011;53.362;58.948;2023-04-23T06:22:55;7.15;;;3.97;;
49942;SDS011;36011;53.362;58.948;2023-04-23T06:25:59;4.10;;;2.03;;
49942;SDS011;36011;53.362;58.948;2023-04-23T06:32:04;3.05;;;1.45;;
49942;SDS011;36011;53.362;58.948;2023-04-23T06:35:09;3.28;;;1.50;;
49942;SDS011;36011;53.362;58.948;2023-04-23T06:38:13;2.25;;;1.50;;
49942;SDS011;36011;53.362;58.948;2023-04-23T06:41:18;5.20;;;1.73;;
49942;SDS011;36011;53.362;58.948;2023-04-23T06:44:25;5.15;;;2.60;;
49942;SDS011;36011;53.362;58.948;2023-04-23T06:47:26;5.25;;;2.40;;
49942;SDS011;36011;53.362;58.948;2023-04-23T06:50:27;6.57;;;2.15;;
49942;SDS011;36011;53.362;58.948;2023-04-23T06:53:31;5.50;;;2.40;;
49942;SDS011;36011;53.362;58.948;2023-04-23T06:56:34;5.82;;;2.97;;
49942;SDS011;36011;53.362;58.948;2023-04-23T06:59:35;4.78;;;2.72;;
49942;SDS011;36011;53.362;58.948;2023-04-23T07:02:42;4.53;;;2.60;;
49942;SDS011;36011;53.362;58.948;2023-04-23T07:05:44;4.97;;;2.70;;
49942;SDS011;36011;53.362;58.948;2023-04-23T07:08:46;3.40;;;2.58;;
49942;SDS011;36011;53.362;58.948;2023-04-23T07:11:50;7.43;;;3.65;;
49942;SDS011;36011;53.362;58.948;2023-04-23T07:14:55;4.30;;;2.75;;
49942;SDS011;36011;53.362;58.948;2023-04-23T07:18:01;3.65;;;2.25;;
49942;SDS011;36011;53.362;58.948;2023-04-23T07:21:08;3.90;;;2.70;;
49942;SDS011;36011;53.362;58.948;2023-04-23T07:24:11;5.03;;;3.03;;
49942;SDS011;36011;53.362;58.948;2023-04-23T07:27:16;5.50;;;2.95;;
49942;SDS011;36011;53.362;58.948;2023-04-23T07:30:20;10.55;;;3.80;;
49942;SDS011;36011;53.362;58.948;2023-04-23T07:33:25;9.23;;;3.65;;
49942;SDS011;36011;53.362;58.948;2023-04-23T07:39:33;4.53;;;3.15;;
49942;SDS011;36011;53.362;58.948;2023-04-23T07:42:38;5.72;;;3.55;;
49942;SDS011;36011;53.362;58.948;2023-04-23T07:45:42;3.85;;;3.20;;
49942;SDS011;36011;53.362;58.948;2023-04-23T07:48:46;5.10;;;3.17;;
49942;SDS011;36011;53.362;58.948;2023-04-23T07:51:53;5.40;;;3.92;;
49942;SDS011;36011;53.362;58.948;2023-04-23T07:54:54;5.78;;;3.13;;
49942;SDS011;36011;53.362;58.948;2023-04-23T07:57:56;3.95;;;3.30;;
49942;SDS011;36011;53.362;58.948;2023-04-23T08:01:03;4.47;;;2.72;;
49942;SDS011;36011;53.362;58.948;2023-04-23T08:04:10;4.30;;;2.47;;
49942;SDS011;36011;53.362;58.948;2023-04-23T08:07:11;3.33;;;2.83;;
49942;SDS011;36011;53.362;58.948;2023-04-23T08:10:16;4.40;;;2.67;;
49942;SDS011;36011;53.362;58.948;2023-04-23T08:13:23;4.53;;;2.90;;
49942;SDS011;36011;53.362;58.948;2023-04-23T08:16:25;4.20;;;2.92;;
49942;SDS011;36011;53.362;58.948;2023-04-23T08:19:31;6.28;;;3.38;;
49942;SDS011;36011;53.362;58.948;2023-04-23T08:22:37;4.05;;;2.53;;
49942;SDS011;36011;53.362;58.948;2023-04-23T08:25:41;4.00;;;2.70;;
49942;SDS011;36011;53.362;58.948;2023-04-23T08:28:52;7.15;;;4.13;;
49942;SDS011;36011;53.362;58.948;2023-04-23T08:31:58;5.93;;;3.63;;
49942;SDS011;36011;53.362;58.948;2023-04-23T08:35:00;7.30;;;4.80;;
49942;SDS011;36011;53.362;58.948;2023-04-23T08:38:02;5.38;;;3.33;;
49942;SDS011;36011;53.362;58.948;2023-04-23T08:41:09;6.03;;;3.47;;
49942;SDS011;36011;53.362;58.948;2023-04-23T08:44:18;3.75;;;2.10;;
49942;SDS011;36011;53.362;58.948;2023-04-23T08:47:28;4.78;;;2.90;;
49942;SDS011;36011;53.362;58.948;2023-04-23T08:50:33;5.55;;;2.80;;
49942;SDS011;36011;53.362;58.948;2023-04-23T08:53:43;4.35;;;2.17;;
49942;SDS011;36011;53.362;58.948;2023-04-23T08:56:53;6.43;;;3.22;;
49942;SDS011;36011;53.362;58.948;2023-04-23T08:59:59;9.93;;;3.50;;
49942;SDS011;36011;53.362;58.948;2023-04-23T09:03:07;5.45;;;3.17;;
49942;SDS011;36011;53.362;58.948;2023-04-23T09:06:11;4.88;;;2.58;;
49942;SDS011;36011;53.362;58.948;2023-04-23T09:09:14;4.70;;;2.63;;
49942;SDS011;36011;53.362;58.948;2023-04-23T09:12:21;4.95;;;3.15;;
49942;SDS011;36011;53.362;58.948;2023-04-23T09:15:23;6.63;;;3.95;;
49942;SDS011;36011;53.362;58.948;2023-04-23T09:18:27;4.43;;;3.55;;
49942;SDS011;36011;53.362;58.948;2023-04-23T09:21:32;9.93;;;4.97;;
49942;SDS011;36011;53.362;58.948;2023-04-23T09:24:41;10.68;;;5.63;;
49942;SDS011;36011;53.362;58.948;2023-04-23T09:27:48;4.35;;;2.72;;
49942;SDS011;36011;53.362;58.948;2023-04-23T09:30:55;4.72;;;3.28;;
49942;SDS011;36011;53.362;58.948;2023-04-23T09:34:01;4.32;;;2.38;;
49942;SDS011;36011;53.362;58.948;2023-04-23T09:40:05;4.95;;;2.70;;
49942;SDS011;36011;53.362;58.948;2023-04-23T09:43:10;13.05;;;4.50;;
49942;SDS011;36011;53.362;58.948;2023-04-23T09:46:19;7.07;;;3.58;;
49942;SDS011;36011;53.362;58.948;2023-04-23T09:49:46;3.63;;;2.22;;
49942;SDS011;36011;53.362;58.948;2023-04-23T09:52:53;2.53;;;1.60;;
49942;SDS011;36011;53.362;58.948;2023-04-23T09:55:58;2.75;;;2.03;;
49942;SDS011;36011;53.362;58.948;2023-04-23T09:58:59;3.10;;;2.13;;
49942;SDS011;36011;53.362;58.948;2023-04-23T10:02:05;6.03;;;2.95;;
49942;SDS011;36011;53.362;58.948;2023-04-23T10:05:16;4.53;;;2.67;;
49942;SDS011;36011;53.362;58.948;2023-04-23T10:08:25;4.43;;;2.05;;
49942;SDS011;36011;53.362;58.948;2023-04-23T10:11:29;7.10;;;2.83;;
49942;SDS011;36011;53.362;58.948;2023-04-23T10:14:33;2.85;;;2.15;;
49942;SDS011;36011;53.362;58.948;2023-04-23T10:17:38;6.03;;;2.55;;
49942;SDS011;36011;53.362;58.948;2023-04-23T10:20:44;4.05;;;1.60;;
49942;SDS011;36011;53.362;58.948;2023-04-23T10:23:53;3.80;;;1.42;;
49942;SDS011;36011;53.362;58.948;2023-04-23T10:27:00;3.38;;;1.42;;
49942;SDS011;36011;53.362;58.948;2023-04-23T10:30:04;4.95;;;1.63;;
49942;SDS011;36011;53.362;58.948;2023-04-23T10:33:11;3.67;;;1.83;;
49942;SDS011;36011;53.362;58.948;2023-04-23T10:36:17;2.85;;;1.70;;
49942;SDS011;36011;53.362;58.948;2023-04-23T10:39:29;1.38;;;0.98;;
49942;SDS011;36011;53.362;58.948;2023-04-23T10:42:40;2.20;;;1.00;;
49942;SDS011;36011;53.362;58.948;2023-04-23T10:45:48;3.25;;;1.50;;
49942;SDS011;36011;53.362;58.948;2023-04-23T10:52:31;1.70;;;1.00;;
49942;SDS011;36011;53.362;58.948;2023-04-23T10:55:35;0.98;;;0.80;;
49942;SDS011;36011;53.362;58.948;2023-04-23T10:58:46;1.63;;;0.88;;
49942;SDS011;36011;53.362;58.948;2023-04-23T11:01:51;0.95;;;0.75;;
49942;SDS011;36011;53.362;58.948;2023-04-23T11:04:57;1.10;;;0.63;;
49942;SDS011;36011;53.362;58.948;2023-04-23T11:08:04;2.88;;;1.13;;
49942;SDS011;36011;53.362;58.948;2023-04-23T11:11:07;2.85;;;1.15;;
49942;SDS011;36011;53.362;58.948;2023-04-23T11:14:12;3.42;;;1.30;;
49942;SDS011;36011;53.362;58.948;2023-04-23T11:17:19;6.22;;;2.15;;
49942;SDS011;36011;53.362;58.948;2023-04-23T11:20:26;1.60;;;1.02;;
49942;SDS011;36011;53.362;58.948;2023-04-23T11:23:28;3.65;;;1.95;;
49942;SDS011;36011;53.362;58.948;2023-04-23T11:26:35;4.95;;;1.95;;
49942;SDS011;36011;53.362;58.948;2023-04-23T11:29:41;2.05;;;0.80;;
49942;SDS011;36011;53.362;58.948;2023-04-23T11:32:49;1.83;;;1.25;;
49942;SDS011;36011;53.362;58.948;2023-04-23T11:35:54;2.22;;;1.55;;
49942;SDS011;36011;53.362;58.948;2023-04-23T11:39:03;3.95;;;1.60;;
49942;SDS011;36011;53.362;58.948;2023-04-23T11:42:12;1.45;;;0.90;;
49942;SDS011;36011;53.362;58.948;2023-04-23T11:45:22;2.83;;;1.35;;
49942;SDS011;36011;53.362;58.948;2023-04-23T11:48:28;2.58;;;1.02;;
49942;SDS011;36011;53.362;58.948;2023-04-23T11:51:33;2.58;;;0.90;;
49942;SDS011;36011;53.362;58.948;2023-04-23T11:54:39;2.78;;;1.10;;
49942;SDS011;36011;53.362;58.948;2023-04-23T11:57:46;1.88;;;1.10;;
49942;SDS011;36011;53.362;58.948;2023-04-23T12:00:49;1.70;;;1.20;;
49942;SDS011;36011;53.362;58.948;2023-04-23T12:03:58;2.53;;;0.90;;
49942;SDS011;36011;53.362;58.948;2023-04-23T12:06:59;1.45;;;0.80;;
49942;SDS011;36011;53.362;58.948;2023-04-23T12:10:04;1.15;;;0.75;;
49942;SDS011;36011;53.362;58.948;2023-04-23T12:13:15;1.50;;;0.90;;
49942;SDS011;36011;53.362;58.948;2023-04-23T12:16:32;0.68;;;0.65;;
49942;SDS011;36011;53.362;58.948;2023-04-23T12:19:41;2.55;;;0.80;;
49942;SDS011;36011;53.362;58.948;2023-04-23T12:22:44;2.00;;;1.48;;
49942;SDS011;36011;53.362;58.948;2023-04-23T12:25:46;2.67;;;1.40;;
49942;SDS011;36011;53.362;58.948;2023-04-23T12:28:55;3.10;;;1.65;;
49942;SDS011;36011;53.362;58.948;2023-04-23T12:32:08;1.50;;;1.30;;
49942;SDS011;36011;53.362;58.948;2023-04-23T12:35:15;9.95;;;1.65;;
49942;SDS011;36011;53.362;58.948;2023-04-23T12:38:20;4.68;;;1.40;;
49942;SDS011;36011;53.362;58.948;2023-04-23T12:41:28;2.08;;;1.30;;
49942;SDS011;36011;53.362;58.948;2023-04-23T12:44:33;1.65;;;1.27;;
49942;SDS011;36011;53.362;58.948;2023-04-23T12:47:37;2.88;;;0.98;;
49942;SDS011;36011;53.362;58.948;2023-04-23T12:50:38;2.92;;;1.48;;
49942;SDS011;36011;53.362;58.948;2023-04-23T12:53:42;3.92;;;1.20;;
49942;SDS011;36011;53.362;58.948;2023-04-23T12:56:44;1.50;;;1.20;;
49942;SDS011;36011;53.362;58.948;2023-04-23T12:59:48;3.22;;;1.38;;
49942;SDS011;36011;53.362;58.948;2023-04-23T13:02:54;1.45;;;1.13;;
49942;SDS011;36011;53.362;58.948;2023-04-23T13:06:00;2.75;;;1.20;;
49942;SDS011;36011;53.362;58.948;2023-04-23T13:09:06;3.45;;;1.70;;
49942;SDS011;36011;53.362;58.948;2023-04-23T13:12:11;4.85;;;1.90;;
49942;SDS011;36011;53.362;58.948;2023-04-23T13:15:16;2.40;;;1.27;;
49942;SDS011;36011;53.362;58.948;2023-04-23T13:18:22;2.92;;;1.80;;
49942;SDS011;36011;53.362;58.948;2023-04-23T13:21:24;2.42;;;1.50;;
49942;SDS011;36011;53.362;58.948;2023-04-23T13:24:25;3.38;;;1.58;;
49942;SDS011;36011;53.362;58.948;2023-04-23T13:27:28;1.15;;;1.00;;
49942;SDS011;36011;53.362;58.948;2023-04-23T13:30:32;2.05;;;1.10;;
49942;SDS011;36011;53.362;58.948;2023-04-23T13:33:34;1.92;;;0.98;;
49942;SDS011;36011;53.362;58.948;2023-04-23T13:36:35;1.17;;;0.70;;
49942;SDS011;36011;53.362;58.948;2023-04-23T13:39:44;1.02;;;0.90;;
49942;SDS011;36011;53.362;58.948;2023-04-23T13:42:48;1.88;;;1.02;;
49942;SDS011;36011;53.362;58.948;2023-04-23T13:45:55;3.22;;;1.38;;
49942;SDS011;36011;53.362;58.948;2023-04-23T13:49:03;2.42;;;1.10;;
49942;SDS011;36011;53.362;58.948;2023-04-23T13:52:07;3.03;;;1.90;;
49942;SDS011;36011;53.362;58.948;2023-04-23T13:55:12;2.83;;;1.92;;
49942;SDS011;36011;53.362;58.948;2023-04-23T14:01:18;5.22;;;2.10;;
49942;SDS011;36011;53.362;58.948;2023-04-23T14:04:22;2.95;;;2.38;;
49942;SDS011;36011;53.362;58.948;2023-04-23T14:07:28;1.55;;;1.42;;
49942;SDS011;36011;53.362;58.948;2023-04-23T14:10:34;2.78;;;1.42;;
49942;SDS011;36011;53.362;58.948;2023-04-23T14:13:36;2.83;;;1.85;;
49942;SDS011;36011;53.362;58.948;2023-04-23T14:19:40;3.50;;;2.00;;
49942;SDS011;36011;53.362;58.948;2023-04-23T14:22:48;2.55;;;1.30;;
49942;SDS011;36011;53.362;58.948;2023-04-23T14:26:02;5.95;;;3.58;;
49942;SDS011;36011;53.362;58.948;2023-04-23T14:29:09;7.10;;;3.58;;
49942;SDS011;36011;53.362;58.948;2023-04-23T14:32:17;4.43;;;3.05;;
49942;SDS011;36011;53.362;58.948;2023-04-23T14:35:25;5.50;;;2.75;;
49942;SDS011;36011;53.362;58.948;2023-04-23T14:38:32;4.88;;;2.65;;
49942;SDS011;36011;53.362;58.948;2023-04-23T14:41:34;6.13;;;3.05;;
49942;SDS011;36011;53.362;58.948;2023-04-23T14:44:38;5.97;;;3.10;;
49942;SDS011;36011;53.362;58.948;2023-04-23T14:47:41;6.53;;;3.83;;
49942;SDS011;36011;53.362;58.948;2023-04-23T14:50:52;6.70;;;3.88;;
49942;SDS011;36011;53.362;58.948;2023-04-23T14:53:59;5.85;;;3.83;;
49942;SDS011;36011;53.362;58.948;2023-04-23T14:57:06;7.35;;;4.28;;
49942;SDS011;36011;53.362;58.948;2023-04-23T15:00:07;9.45;;;3.92;;
49942;SDS011;36011;53.362;58.948;2023-04-23T15:03:13;7.63;;;3.13;;
49942;SDS011;36011;53.362;58.948;2023-04-23T15:06:20;6.35;;;3.40;;
49942;SDS011;36011;53.362;58.948;2023-04-23T15:09:24;5.90;;;3.47;;
49942;SDS011;36011;53.362;58.948;2023-04-23T15:12:40;9.85;;;4.93;;
49942;SDS011;36011;53.362;58.948;2023-04-23T15:15:50;8.90;;;5.30;;
49942;SDS011;36011;53.362;58.948;2023-04-23T15:19:05;7.97;;;4.60;;
49942;SDS011;36011;53.362;58.948;2023-04-23T15:22:15;6.32;;;4.10;;
49942;SDS011;36011;53.362;58.948;2023-04-23T15:25:28;9.30;;;4.95;;
49942;SDS011;36011;53.362;58.948;2023-04-23T15:28:32;8.63;;;5.65;;
49942;SDS011;36011;53.362;58.948;2023-04-23T15:34:40;7.90;;;5.53;;
49942;SDS011;36011;53.362;58.948;2023-04-23T15:37:44;7.65;;;5.57;;
49942;SDS011;36011;53.362;58.948;2023-04-23T15:43:52;6.38;;;3.90;;
49942;SDS011;36011;53.362;58.948;2023-04-23T15:46:56;6.53;;;3.33;;
49942;SDS011;36011;53.362;58.948;2023-04-23T15:50:06;5.35;;;3.10;;
49942;SDS011;36011;53.362;58.948;2023-04-23T15:53:09;5.57;;;3.33;;
49942;SDS011;36011;53.362;58.948;2023-04-23T15:56:16;8.25;;;3.40;;
49942;SDS011;36011;53.362;58.948;2023-04-23T15:59:25;9.85;;;6.38;;
49942;SDS011;36011;53.362;58.948;2023-04-23T16:02:26;16.02;;;9.48;;
49942;SDS011;36011;53.362;58.948;2023-04-23T16:05:34;14.10;;;10.18;;
49942;SDS011;36011;53.362;58.948;2023-04-23T16:08:40;13.57;;;9.73;;
49942;SDS011;36011;53.362;58.948;2023-04-23T16:11:47;16.17;;;10.02;;
49942;SDS011;36011;53.362;58.948;2023-04-23T16:14:53;11.20;;;7.80;;
49942;SDS011;36011;53.362;58.948;2023-04-23T16:18:00;6.35;;;4.10;;
49942;SDS011;36011;53.362;58.948;2023-04-23T16:21:05;5.28;;;3.05;;
49942;SDS011;36011;53.362;58.948;2023-04-23T16:24:07;3.03;;;2.80;;
49942;SDS011;36011;53.362;58.948;2023-04-23T16:27:11;5.82;;;3.72;;
49942;SDS011;36011;53.362;58.948;2023-04-23T16:30:17;5.20;;;3.65;;
49942;SDS011;36011;53.362;58.948;2023-04-23T16:33:21;4.43;;;4.00;;
49942;SDS011;36011;53.362;58.948;2023-04-23T16:36:27;4.65;;;4.00;;
49942;SDS011;36011;53.362;58.948;2023-04-23T16:42:32;9.98;;;5.38;;
49942;SDS011;36011;53.362;58.948;2023-04-23T16:45:36;4.88;;;3.90;;
49942;SDS011;36011;53.362;58.948;2023-04-23T16:48:43;6.40;;;3.33;;
49942;SDS011;36011;53.362;58.948;2023-04-23T16:51:49;4.32;;;3.92;;
49942;SDS011;36011;53.362;58.948;2023-04-23T16:54:53;3.70;;;3.30;;
49942;SDS011;36011;53.362;58.948;2023-04-23T16:57:59;5.00;;;3.22;;
49942;SDS011;36011;53.362;58.948;2023-04-23T17:01:06;4.10;;;3.22;;
49942;SDS011;36011;53.362;58.948;2023-04-23T17:04:15;4.07;;;3.17;;
49942;SDS011;36011;53.362;58.948;2023-04-23T17:10:21;6.18;;;3.97;;
49942;SDS011;36011;53.362;58.948;2023-04-23T17:13:27;4.07;;;3.63;;
49942;SDS011;36011;53.362;58.948;2023-04-23T17:16:29;4.05;;;3.58;;
49942;SDS011;36011;53.362;58.948;2023-04-23T17:19:35;4.50;;;3.55;;
49942;SDS011;36011;53.362;58.948;2023-04-23T17:22:40;4.95;;;3.50;;
49942;SDS011;36011;53.362;58.948;2023-04-23T17:25:46;5.68;;;3.28;;
49942;SDS011;36011;53.362;58.948;2023-04-23T17:28:50;6.13;;;5.40;;
49942;SDS011;36011;53.362;58.948;2023-04-23T17:31:55;6.05;;;5.55;;
49942;SDS011;36011;53.362;58.948;2023-04-23T17:35:00;9.55;;;8.55;;
49942;SDS011;36011;53.362;58.948;2023-04-23T17:38:11;8.77;;;7.97;;
49942;SDS011;36011;53.362;58.948;2023-04-23T17:41:17;7.07;;;6.40;;
49942;SDS011;36011;53.362;58.948;2023-04-23T17:44:21;6.68;;;5.72;;
49942;SDS011;36011;53.362;58.948;2023-04-23T17:47:23;6.05;;;5.00;;
49942;SDS011;36011;53.362;58.948;2023-04-23T17:50:31;5.95;;;5.35;;
49942;SDS011;36011;53.362;58.948;2023-04-23T17:53:32;8.10;;;7.15;;
49942;SDS011;36011;53.362;58.948;2023-04-23T17:56:39;9.35;;;7.60;;
49942;SDS011;36011;53.362;58.948;2023-04-23T17:59:46;8.15;;;6.25;;
49942;SDS011;36011;53.362;58.948;2023-04-23T18:02:48;7.55;;;5.35;;
49942;SDS011;36011;53.362;58.948;2023-04-23T18:05:52;8.15;;;5.68;;
49942;SDS011;36011;53.362;58.948;2023-04-23T18:08:58;8.15;;;7.05;;
49942;SDS011;36011;53.362;58.948;2023-04-23T18:12:03;7.68;;;6.22;;
49942;SDS011;36011;53.362;58.948;2023-04-23T18:15:07;7.68;;;5.80;;
49942;SDS011;36011;53.362;58.948;2023-04-23T18:18:12;6.00;;;5.45;;
49942;SDS011;36011;53.362;58.948;2023-04-23T18:21:22;7.82;;;5.88;;
49942;SDS011;36011;53.362;58.948;2023-04-23T18:24:25;9.05;;;5.68;;
49942;SDS011;36011;53.362;58.948;2023-04-23T18:27:29;6.50;;;4.78;;
49942;SDS011;36011;53.362;58.948;2023-04-23T18:30:33;5.47;;;4.97;;
49942;SDS011;36011;53.362;58.948;2023-04-23T18:36:48;6.70;;;4.75;;
49942;SDS011;36011;53.362;58.948;2023-04-23T18:39:50;6.15;;;4.72;;
49942;SDS011;36011;53.362;58.948;2023-04-23T18:42:54;4.97;;;4.47;;
49942;SDS011;36011;53.362;58.948;2023-04-23T18:45:58;6.30;;;4.55;;
49942;SDS011;36011;53.362;58.948;2023-04-23T18:49:05;8.43;;;4.87;;
49942;SDS011;36011;53.362;58.948;2023-04-23T18:52:28;5.57;;;4.80;;
49942;SDS011;36011;53.362;58.948;2023-04-23T18:55:32;6.10;;;4.38;;
49942;SDS011;36011;53.362;58.948;2023-04-23T18:58:36;7.20;;;4.78;;